METAR stanice u blizini

 

LYNI - Nis, Yugoslavia
Distance from station: JZ 40km
Ažurirano: 16/10/2019 21:00
Vedro
Vedro
 Pravac vetra varies
Vetar: varies 2 km/h
Temperatura: 15°C
Tačka rose: 8°C
Vlažnost: 63%
Pritisak: 1017 hPa
Pregled: Vedro
Vidljivost: greater than 10 km
2019/10/16 19:00 LYNI 161900Z VRB01KT CAVOK 15/08 Q1017 NOSIG
LYKV - Kraljevo, Yugoslavia
Distance from station: ZSZ 136km
Ažurirano: 16/10/2019 21:00
Vedro
Vedro
 Pravac vetra IJI
Vetar: IJI 7 km/h
Temperatura: 14°C
Tačka rose: 10°C
Vlažnost: 77%
Pritisak: 1017 hPa
Pregled: Vedro
Vidljivost: greater than 10 km
2019/10/16 19:00 LYKV 161900Z 12004KT CAVOK 14/10 Q1017 NOSIG
LBSF - Sofia (observato, Bulgaria
Distance from station: JI 138km
Ažurirano: 16/10/2019 21:00
Vedro
Vedro
 Pravac vetra JJI
Vetar: JJI 6 km/h
Temperatura: 14°C
Tačka rose: 6°C
Vlažnost: 59%
Pritisak: 1018 hPa
Pregled: Vedro
Vidljivost: greater than 10 km
2019/10/16 19:00 LBSF 161900Z 15003KT CAVOK 14/06 Q1018 NOSIG
 
BKPR - Prishtina, Yugoslavia
Distance from station: JZ 147km
Ažurirano: 16/10/2019 21:00
Vedro
Vedro
 Pravac vetra S
Vetar: S 9 km/h
Temperatura: 17°C
Tačka rose: 7°C
Vlažnost: 52%
Pritisak: 1018 hPa
Pregled: Vedro
Vidljivost: greater than 10 km
2019/10/16 19:00 BKPR 161900Z 35005KT 270V030 CAVOK 17/07 Q1018 NOSIG
LRCV - Craiova, Romania
Distance from station: SI 154km
Ažurirano: 16/10/2019 21:00
Vedro
Vedro
 Pravac vetra IJI
Vetar: IJI 9 km/h
Temperatura: 13°C
Tačka rose: 11°C
Vlažnost: 88%
Pritisak: 1018 hPa
Oblaci: Vedro
Vidljivost: 10 km
2019/10/16 19:00 LRCV 161900Z AUTO 11005KT 9999 NCD 13/11 Q1018
LWSK - Skopje/Petrovac, Macedonia
Distance from station: JJZ 185km
Ažurirano: 16/10/2019 21:00
Vedro
Vedro
 Pravac vetra I
Vetar: I 4 km/h
Temperatura: 15°C
Tačka rose: 10°C
Vlažnost: 72%
Pritisak: 1017 hPa
Pregled: Vedro
Vidljivost: greater than 10 km
2019/10/16 19:00 LWSK 161900Z 09002KT CAVOK 15/10 Q1017 NOSIG
 
LYVR - Vrsac, Yugoslavia
Distance from station: SSZ 189km
Ažurirano: 16/10/2019 18:00
NOT Current
Vedro
Vedro
 Pravac vetra varies
Vetar: varies 4 km/h
Temperatura: 21°C
Tačka rose: 6°C
Vlažnost: 38%
Pritisak: 1015 hPa
Pregled: Vedro
Vidljivost: greater than 10 km
2019/10/16 16:00 LYVR 161600Z VRB02KT CAVOK 21/06 Q1015 NOSIG
LYUZ - Uzice-Ponikve, Yugoslavia
Distance from station: Z 207km
Ažurirano: 16/10/2019 21:00
Vedro
Vedro
 Pravac vetra calm
Vetar: Tišina
Temperatura: 15°C
Tačka rose: 7°C
Vlažnost: 59%
Pritisak: 1020 hPa
Pregled: Vedro
Vidljivost: greater than 10 km
2019/10/16 19:00 LYUZ 161900Z AUTO 00000KT CAVOK 15/07 Q1020
LYBE - Belgrade/Surcin, Yugoslavia
Distance from station: SZ 209km
Ažurirano: 16/10/2019 21:00
Vedro
Vedro
 Pravac vetra IJI
Vetar: IJI 6 km/h
Temperatura: 20°C
Tačka rose: 6°C
Vlažnost: 40%
Pritisak: 1017 hPa
Pregled: Vedro
Vidljivost: greater than 10 km
2019/10/16 19:00 LYBE 161900Z 12003KT CAVOK 20/06 Q1017 NOSIG
 
LYBT - Batajnica, Yugoslavia
Distance from station: SZ 219km
Ažurirano: 16/10/2019 21:00
Vedro
Vedro
 Pravac vetra SSZ
Vetar: SSZ 6 km/h
Temperatura: 13°C
Tačka rose: 6°C
Vlažnost: 63%
Pritisak: 1016 hPa
Pregled: Vedro
Vidljivost: greater than 10 km
2019/10/16 19:00 LYBT 161900Z 33003KT CAVOK 13/06 Q1016 NOSIG
LRTR - Timisoara/Giarma, Romania
Distance from station: SSZ 260km
Ažurirano: 16/10/2019 21:00
Vedro
Vedro
 Pravac vetra SI
Vetar: SI 6 km/h
Temperatura: 14°C
Tačka rose: 7°C
Vlažnost: 63%
Pritisak: 1017 hPa
Pregled: Vedro
Vidljivost: greater than 10 km
2019/10/16 19:00 LRTR 161900Z 05003KT 340V070 CAVOK 14/07 Q1017
LBPD - Plovdiv, Bulgaria
Distance from station: JI 263km
Ažurirano: 16/10/2019 21:00
Vedro
Vedro
 Pravac vetra calm
Vetar: Tišina
Temperatura: 14°C
Tačka rose: 10°C
Vlažnost: 77%
Pritisak: 1018 hPa
Oblaci: Vedro
Vidljivost: 10 km
2019/10/16 19:00 LBPD 161900Z AUTO 00000KT 9999 NCD 14/10 Q1018 NOSIG
 
LYPG - Podgorica(Titogr, Yugoslavia
Distance from station: ZJZ 278km
Ažurirano: 16/10/2019 21:00

 Pravac vetra SSZ
Vetar: SSZ 7 km/h
Temperatura: 17°C
Tačka rose: 13°C
Vlažnost: 77%
Pritisak: 1017 hPa
Vidljivost: 8 km
2019/10/16 19:00 LYPG 161900Z 33004KT 8000 17/13 Q1017 NOSIG
LBGO - Gorna Orechovist, Bulgaria
Distance from station: I 285km
Ažurirano: 16/10/2019 21:00
Vedro
Vedro
 Pravac vetra ZSZ
Vetar: ZSZ 9 km/h
Temperatura: 12°C
Tačka rose: 9°C
Vlažnost: 82%
Pritisak: 1017 hPa
Oblaci: Vedro
Vidljivost: 10 km
2019/10/16 19:00 LBGO 161900Z AUTO 29005KT 9999 NCD 12/09 Q1017
LRSB - Sibiu/Turnisor, Romania
Distance from station: SSI 286km
Ažurirano: 16/10/2019 21:00
Vedro
Vedro
 Pravac vetra varies
Vetar: varies 2 km/h
Temperatura: 11°C
Tačka rose: 7°C
Vlažnost: 77%
Pritisak: 1018 hPa
Pregled: Vedro
Vidljivost: greater than 10 km
2019/10/16 19:00 LRSB 161900Z VRB01KT CAVOK 11/07 Q1018
 
LWOH - Ohrid, Macedonia
Distance from station: JJZ 292km
Ažurirano: 16/10/2019 21:00
Few Clouds
Few Clouds
 Pravac vetra SSZ
Vetar: SSZ 6 km/h
Temperatura: 10°C
Tačka rose: 8°C
Vlažnost: 88%
Pritisak: 1019 hPa
Oblaci: Few Clouds
Vidljivost: 10 km
Cloud details: Few Clouds 1219 m
2019/10/16 19:00 LWOH 161900Z 34003KT 9999 FEW040 10/08 Q1019
LQTZ - Tuzla, Yugoslavia
Distance from station: ZSZ 298km
Ažurirano: 16/10/2019 21:00
Vedro
Vedro
 Pravac vetra ZSZ
Vetar: ZSZ 7 km/h
Temperatura: 16°C
Tačka rose: 15°C
Vlažnost: 94%
Pritisak: 1017 hPa
Pregled: Vedro
Vidljivost: greater than 10 km
2019/10/16 19:00 LQTZ 161900Z 30004KT CAVOK 16/15 Q1017
LRAR - Arad, Romania
Distance from station: SSZ 301km
Ažurirano: 16/10/2019 21:00
Vedro
Vedro
 Pravac vetra varies
Vetar: varies 2 km/h
Temperatura: 13°C
Tačka rose: 9°C
Vlažnost: 77%
Pritisak: 1017 hPa
Pregled: Vedro
Vidljivost: greater than 10 km
2019/10/16 19:00 LRAR 161900Z VRB01KT CAVOK 13/09 Q1017
 
LYTV - Tivat, Yugoslavia
Distance from station: ZJZ 315km
Ažurirano: 16/10/2019 21:00
Vedro
Vedro
 Pravac vetra calm
Vetar: Tišina
Temperatura: 14°C
Tačka rose: 14°C
Vlažnost: 100%
Pritisak: 1017 hPa
Pregled: Vedro
Vidljivost: greater than 10 km
2019/10/16 19:00 LYTV 161900Z 00000KT CAVOK 14/14 Q1017
LATI - Tirana, Albania
Distance from station: JZ 316km
Ažurirano: 16/10/2019 20:50
Vedro
Vedro
 Pravac vetra varies
Vetar: varies 4 km/h
Temperatura: 16°C
Tačka rose: 14°C
Vlažnost: 88%
Pritisak: 1017 hPa
Pregled: Vedro
Vidljivost: greater than 10 km
2019/10/16 18:50 LATI 161850Z VRB02KT CAVOK 16/14 Q1017 NOSIG
LQBK - Banja Luka, Yugoslavia
Distance from station: SZ 426km
Ažurirano: 16/10/2019 21:00
Vedro
Vedro
 Pravac vetra I
Vetar: I 4 km/h
Temperatura: 16°C
Tačka rose: 13°C
Vlažnost: 83%
Pritisak: 1018 hPa
Pregled: Vedro
Vidljivost: greater than 10 km
2019/10/16 19:00 LQBK 161900Z 10002KT CAVOK 16/13 Q1018 NOSIG
 
LDOS - Osijek, Croatia
Distance from station: SSZ 360km
Ažurirano: 16/10/2019 21:00
Vedro
Vedro
 Pravac vetra S
Vetar: S 11 km/h
Temperatura: 15°C
Tačka rose: 12°C
Vlažnost: 82%
Pritisak: 1017 hPa
Pregled: Vedro
Vidljivost: greater than 10 km
2019/10/16 19:00 LDOS 161900Z 35006KT CAVOK 15/12 Q1017
LDDU - Dubrovnik-Cilipi, Croatia
Distance from station: JZ 352km
Ažurirano: 16/10/2019 21:00
Vedro
Vedro
 Pravac vetra SI
Vetar: SI 4 km/h
Temperatura: 17°C
Tačka rose: 15°C
Vlažnost: 88%
Pritisak: 1018 hPa
Pregled: Vedro
Vidljivost: greater than 10 km
2019/10/16 19:00 LDDU 161900Z 04002KT CAVOK 17/15 Q1018 NOSIG
LQMO - Mostar Airport, Bosnia-Herzegovina
Distance from station: Z 359km
Ažurirano: 16/10/2019 21:00
Few Clouds
Few Clouds
 Pravac vetra varies
Vetar: varies 2 km/h
Temperatura: 16°C
Tačka rose: 13°C
Vlažnost: 83%
Pritisak: 1016 hPa
Oblaci: Few Clouds
Vidljivost: 10 km
Cloud details: Few Clouds 1372 m
2019/10/16 19:00 LQMO 161900Z VRB01KT 9999 FEW045 16/13 Q1016
 
LQSA - Sarajevo/Butmir, Yugoslavia
Distance from station: Z 311km
Ažurirano: 16/10/2019 21:00
Vedro
Vedro
 Pravac vetra varies
Vetar: varies 2 km/h
Temperatura: 12°C
Tačka rose: 11°C
Vlažnost: 94%
Pritisak: 1019 hPa
Pregled: Vedro
Vidljivost: greater than 10 km
2019/10/16 19:00 LQSA 161900Z VRB01KT CAVOK 12/11 Q1019 NOSIG
LDSP - Split/Kastel Sta, Croatia
Distance from station: Z 468km
Ažurirano: 16/10/2019 21:00
Delimično oblačno
Delimično oblačno
 Pravac vetra calm
Vetar: Tišina
Temperatura: 19°C
Tačka rose: 18°C
Vlažnost: 94%
Pritisak: 1017 hPa
Oblaci: Delimično oblačno
Vidljivost: 10 km
Cloud details: Few Clouds 457 m
Delimično oblačno 975 m
2019/10/16 19:00 LDSP 161900Z 00000KT 9999 FEW015 SCT032 19/18 Q1017 NOSIG
LDZD - Zadar/Zemunik, Croatia
Distance from station: ZSZ 567km
Ažurirano: 16/10/2019 21:00
Vedro
Vedro
 Pravac vetra SSI
Vetar: SSI 6 km/h
Temperatura: 12°C
Tačka rose: 12°C
Vlažnost: 100%
Pritisak: 1018 hPa
Pregled: Vedro
Vidljivost: greater than 10 km
2019/10/16 19:00 LDZD 161900Z 02003KT CAVOK 12/12 Q1018 NOSIG
 
LDZA - Zagreb/Pleso, Croatia
Distance from station: SZ 555km
Ažurirano: 16/10/2019 21:00
Vedro
Vedro
 Pravac vetra SI
Vetar: SI 9 km/h
Temperatura: 13°C
Tačka rose: 12°C
Vlažnost: 94%
Pritisak: 1018 hPa
Pregled: Vedro
Vidljivost: greater than 10 km
2019/10/16 19:00 LDZA 161900Z 05005KT CAVOK 13/12 Q1018 NOSIG
LJCE - Cerklje, Slovenia
Distance from station: SZ 680km
Ažurirano: 16/10/2019 21:00
Pretežno oblačno
Pretežno oblačno
 Pravac vetra ISI
Vetar: ISI 9 km/h
Temperatura: 15°C
Tačka rose: 14°C
Vlažnost: 94%
Pritisak: 1019 hPa
Oblaci: Pretežno oblačno
Vidljivost: 10 km
Cloud details: Pretežno oblačno 396 m
2019/10/16 19:00 LJCE 161900Z 07005KT 9999 BKN013 15/14 Q1019 RMK GRN
LJMB - Maribor, Slovenia
Distance from station: SZ 616km
Ažurirano: 16/10/2019 21:00
Oblačno
Oblačno
 Pravac vetra varies
Vetar: varies 4 km/h
Temperatura: 15°C
Tačka rose: 12°C
Vlažnost: 82%
Pritisak: 1019 hPa
Oblaci: Oblačno
Vidljivost: 10 km
Cloud details: Oblačno 610 m
2019/10/16 19:00 LJMB 161900Z VRB02KT 9999 OVC020 15/12 Q1019
 
LJLJ - Ljubljana/Brnik, Slovenia
Distance from station: SZ 671km
Ažurirano: 16/10/2019 21:00
Pretežno oblačno
Pretežno oblačno
 Pravac vetra varies
Vetar: varies 2 km/h
Temperatura: 12°C
Tačka rose: 11°C
Vlažnost: 94%
Pritisak: 1018 hPa
Oblaci: Pretežno oblačno
Vidljivost: 10 km
Cloud details: Pretežno oblačno 1524 m
2019/10/16 19:00 LJLJ 161900Z VRB01KT 9999 BKN050 12/11 Q1018 NOSIG
LDRI - Rijeka, Croatia
Distance from station: SZ 650km
Ažurirano: 16/10/2019 21:00
Few Clouds
Few Clouds
 Pravac vetra I
Vetar: I 7 km/h
Temperatura: 15°C
Tačka rose: 14°C
Vlažnost: 94%
Pritisak: 1018 hPa
Oblaci: Few Clouds
Vidljivost: 10 km
Cloud details: Few Clouds 1219 m
2019/10/16 19:00 LDRI 161900Z 09004KT 9999 FEW040 15/14 Q1018
LDPL - Pula, Croatia
Distance from station: ZSZ 686km
Ažurirano: 16/10/2019 21:00
Vedro
Vedro
 Pravac vetra I
Vetar: I 9 km/h
Temperatura: 13°C
Tačka rose: 11°C
Vlažnost: 88%
Pritisak: 1018 hPa
Pregled: Vedro
Vidljivost: greater than 10 km
2019/10/16 19:00 LDPL 161900Z 08005KT CAVOK 13/11 Q1018 NOSIG
 
LJPZ - Portorož, Slovenia
Distance from station: ZSZ 720km
Ažurirano: 16/10/2019 21:00
Vedro
Vedro
 Pravac vetra IJI
Vetar: IJI 9 km/h
Temperatura: 14°C
Tačka rose: 13°C
Vlažnost: 94%
Pritisak: 1018 hPa
Pregled: Vedro
Vidljivost: greater than 10 km
2019/10/16 19:00 LJPZ 161900Z 12005KT CAVOK 14/13 Q1018